Montour, Pennsylvania
Current Conditions -  °F | °C
As of 7:51 AM on Tuesday 21 Oct 2014 (Local Time) from KPIT Reporting Station
Haze Haze  
Wind Chill: 50°   Ceiling: 500
Heat Index: 50°   Visibility: 4mi
Dew Point: 49°   Wind: 6mph
Humidity: 96%   Direction: 250°WSW
Pressure: 29.86"   Gusts: NA
Location:  40.4441°N, 80.1431°W
Report Text: KPIT 211151Z 25005KT 4SM BR BKN005 OVC080 10/09 A2986 RMK AO2 SLP118 60002 70005 T01000094 10100 20094 51005 $
Loading
Personal Weather Stations






























Interactive Weather Map
Tropical Storm Tracking
New forecast layout! Learn more

10-Day Weather Forecast

Advertisements
Track Severe Weather on mobile